sensor_id;sensor_type;location;lat;lon;timestamp;P1;durP1;ratioP1;P2;durP2;ratioP2
16973;SDS011;8603;46.944;7.412;2022-07-23T00:01:55;7.60;;;6.90;;
16973;SDS011;8603;46.944;7.412;2022-07-23T00:04:21;7.15;;;6.40;;
16973;SDS011;8603;46.944;7.412;2022-07-23T00:06:46;8.48;;;7.70;;
16973;SDS011;8603;46.944;7.412;2022-07-23T00:09:12;7.15;;;6.55;;
16973;SDS011;8603;46.944;7.412;2022-07-23T00:11:38;8.40;;;7.70;;
16973;SDS011;8603;46.944;7.412;2022-07-23T00:14:03;10.18;;;8.10;;
16973;SDS011;8603;46.944;7.412;2022-07-23T00:16:29;9.40;;;8.40;;
16973;SDS011;8603;46.944;7.412;2022-07-23T00:18:55;9.45;;;8.20;;
16973;SDS011;8603;46.944;7.412;2022-07-23T00:21:20;9.05;;;7.75;;
16973;SDS011;8603;46.944;7.412;2022-07-23T00:23:46;9.35;;;8.38;;
16973;SDS011;8603;46.944;7.412;2022-07-23T00:26:11;8.43;;;7.72;;
16973;SDS011;8603;46.944;7.412;2022-07-23T00:28:37;8.70;;;7.78;;
16973;SDS011;8603;46.944;7.412;2022-07-23T00:31:03;8.98;;;7.97;;
16973;SDS011;8603;46.944;7.412;2022-07-23T00:33:29;8.45;;;7.65;;
16973;SDS011;8603;46.944;7.412;2022-07-23T00:35:56;9.20;;;7.82;;
16973;SDS011;8603;46.944;7.412;2022-07-23T00:38:21;9.68;;;8.68;;
16973;SDS011;8603;46.944;7.412;2022-07-23T00:40:50;9.65;;;8.40;;
16973;SDS011;8603;46.944;7.412;2022-07-23T00:43:15;9.15;;;8.35;;
16973;SDS011;8603;46.944;7.412;2022-07-23T00:45:41;8.68;;;7.88;;
16973;SDS011;8603;46.944;7.412;2022-07-23T00:48:06;8.73;;;7.93;;
16973;SDS011;8603;46.944;7.412;2022-07-23T00:50:32;9.90;;;7.80;;
16973;SDS011;8603;46.944;7.412;2022-07-23T00:52:58;9.32;;;8.40;;
16973;SDS011;8603;46.944;7.412;2022-07-23T00:55:23;9.75;;;8.57;;
16973;SDS011;8603;46.944;7.412;2022-07-23T00:57:49;9.20;;;8.40;;
16973;SDS011;8603;46.944;7.412;2022-07-23T01:00:16;9.23;;;8.40;;
16973;SDS011;8603;46.944;7.412;2022-07-23T01:02:42;9.60;;;8.68;;
16973;SDS011;8603;46.944;7.412;2022-07-23T01:05:08;8.70;;;7.90;;
16973;SDS011;8603;46.944;7.412;2022-07-23T01:07:34;8.75;;;7.95;;
16973;SDS011;8603;46.944;7.412;2022-07-23T01:10:01;9.88;;;8.55;;
16973;SDS011;8603;46.944;7.412;2022-07-23T01:12:27;10.55;;;8.93;;
16973;SDS011;8603;46.944;7.412;2022-07-23T01:14:56;9.45;;;8.48;;
16973;SDS011;8603;46.944;7.412;2022-07-23T01:17:23;10.02;;;8.88;;
16973;SDS011;8603;46.944;7.412;2022-07-23T01:19:49;10.70;;;9.30;;
16973;SDS011;8603;46.944;7.412;2022-07-23T01:22:15;9.52;;;8.52;;
16973;SDS011;8603;46.944;7.412;2022-07-23T01:24:43;10.23;;;9.20;;
16973;SDS011;8603;46.944;7.412;2022-07-23T01:27:09;9.35;;;8.45;;
16973;SDS011;8603;46.944;7.412;2022-07-23T01:29:34;10.10;;;9.10;;
16973;SDS011;8603;46.944;7.412;2022-07-23T01:32:00;9.60;;;8.68;;
16973;SDS011;8603;46.944;7.412;2022-07-23T01:34:25;11.13;;;8.68;;
16973;SDS011;8603;46.944;7.412;2022-07-23T01:36:51;8.68;;;7.88;;
16973;SDS011;8603;46.944;7.412;2022-07-23T01:39:16;9.88;;;8.90;;
16973;SDS011;8603;46.944;7.412;2022-07-23T01:41:42;9.00;;;8.10;;
16973;SDS011;8603;46.944;7.412;2022-07-23T01:44:08;9.77;;;8.77;;
16973;SDS011;8603;46.944;7.412;2022-07-23T01:46:33;9.77;;;8.88;;
16973;SDS011;8603;46.944;7.412;2022-07-23T01:49:00;9.52;;;8.63;;
16973;SDS011;8603;46.944;7.412;2022-07-23T01:51:25;9.68;;;8.77;;
16973;SDS011;8603;46.944;7.412;2022-07-23T01:53:51;10.45;;;8.90;;
16973;SDS011;8603;46.944;7.412;2022-07-23T01:56:16;10.25;;;9.25;;
16973;SDS011;8603;46.944;7.412;2022-07-23T01:58:43;9.80;;;8.80;;
16973;SDS011;8603;46.944;7.412;2022-07-23T02:01:09;11.88;;;10.60;;
16973;SDS011;8603;46.944;7.412;2022-07-23T02:03:35;10.50;;;9.13;;
16973;SDS011;8603;46.944;7.412;2022-07-23T02:06:00;21.38;;;10.70;;
16973;SDS011;8603;46.944;7.412;2022-07-23T02:08:26;13.13;;;10.90;;
16973;SDS011;8603;46.944;7.412;2022-07-23T02:10:51;12.70;;;11.25;;
16973;SDS011;8603;46.944;7.412;2022-07-23T02:13:17;13.45;;;10.63;;
16973;SDS011;8603;46.944;7.412;2022-07-23T02:15:43;10.60;;;9.27;;
16973;SDS011;8603;46.944;7.412;2022-07-23T02:18:09;11.80;;;9.50;;
16973;SDS011;8603;46.944;7.412;2022-07-23T02:20:35;10.38;;;9.38;;
16973;SDS011;8603;46.944;7.412;2022-07-23T02:23:03;12.48;;;11.35;;
16973;SDS011;8603;46.944;7.412;2022-07-23T02:25:29;11.27;;;10.20;;
16973;SDS011;8603;46.944;7.412;2022-07-23T02:27:54;10.73;;;9.63;;
16973;SDS011;8603;46.944;7.412;2022-07-23T02:30:20;10.65;;;9.65;;
16973;SDS011;8603;46.944;7.412;2022-07-23T02:32:45;11.05;;;10.05;;
16973;SDS011;8603;46.944;7.412;2022-07-23T02:35:11;10.57;;;9.65;;
16973;SDS011;8603;46.944;7.412;2022-07-23T02:37:37;11.43;;;9.98;;
16973;SDS011;8603;46.944;7.412;2022-07-23T02:40:02;10.90;;;9.75;;
16973;SDS011;8603;46.944;7.412;2022-07-23T02:42:28;11.27;;;9.75;;
16973;SDS011;8603;46.944;7.412;2022-07-23T02:44:54;10.10;;;9.10;;
16973;SDS011;8603;46.944;7.412;2022-07-23T02:47:19;9.88;;;8.98;;
16973;SDS011;8603;46.944;7.412;2022-07-23T02:49:45;11.07;;;9.98;;
16973;SDS011;8603;46.944;7.412;2022-07-23T02:52:10;11.30;;;10.18;;
16973;SDS011;8603;46.944;7.412;2022-07-23T02:54:36;10.18;;;9.27;;
16973;SDS011;8603;46.944;7.412;2022-07-23T02:57:03;10.75;;;9.70;;
16973;SDS011;8603;46.944;7.412;2022-07-23T02:59:28;11.18;;;10.07;;
16973;SDS011;8603;46.944;7.412;2022-07-23T03:01:54;11.63;;;10.52;;
16973;SDS011;8603;46.944;7.412;2022-07-23T03:04:20;13.35;;;10.68;;
16973;SDS011;8603;46.944;7.412;2022-07-23T03:06:46;11.23;;;10.07;;
16973;SDS011;8603;46.944;7.412;2022-07-23T03:09:11;12.20;;;10.60;;
16973;SDS011;8603;46.944;7.412;2022-07-23T03:11:37;12.10;;;9.82;;
16973;SDS011;8603;46.944;7.412;2022-07-23T03:14:02;11.65;;;9.55;;
16973;SDS011;8603;46.944;7.412;2022-07-23T03:16:28;12.55;;;10.30;;
16973;SDS011;8603;46.944;7.412;2022-07-23T03:18:53;11.20;;;9.18;;
16973;SDS011;8603;46.944;7.412;2022-07-23T03:21:19;13.18;;;11.10;;
16973;SDS011;8603;46.944;7.412;2022-07-23T03:23:44;11.57;;;10.45;;
16973;SDS011;8603;46.944;7.412;2022-07-23T03:26:10;11.65;;;10.38;;
16973;SDS011;8603;46.944;7.412;2022-07-23T03:28:36;10.73;;;9.70;;
16973;SDS011;8603;46.944;7.412;2022-07-23T03:31:01;13.00;;;10.65;;
16973;SDS011;8603;46.944;7.412;2022-07-23T03:33:27;11.45;;;10.00;;
16973;SDS011;8603;46.944;7.412;2022-07-23T03:35:52;15.07;;;11.35;;
16973;SDS011;8603;46.944;7.412;2022-07-23T03:38:18;11.35;;;10.00;;
16973;SDS011;8603;46.944;7.412;2022-07-23T03:40:44;10.68;;;9.52;;
16973;SDS011;8603;46.944;7.412;2022-07-23T03:43:09;9.85;;;8.98;;
16973;SDS011;8603;46.944;7.412;2022-07-23T03:45:35;11.80;;;8.80;;
16973;SDS011;8603;46.944;7.412;2022-07-23T03:48:00;10.30;;;9.30;;
16973;SDS011;8603;46.944;7.412;2022-07-23T03:50:26;10.13;;;9.07;;
16973;SDS011;8603;46.944;7.412;2022-07-23T03:52:52;12.77;;;10.32;;
16973;SDS011;8603;46.944;7.412;2022-07-23T03:55:19;12.23;;;10.85;;
16973;SDS011;8603;46.944;7.412;2022-07-23T03:57:44;10.68;;;9.60;;
16973;SDS011;8603;46.944;7.412;2022-07-23T04:00:10;10.43;;;9.32;;
16973;SDS011;8603;46.944;7.412;2022-07-23T04:02:37;10.73;;;9.63;;
16973;SDS011;8603;46.944;7.412;2022-07-23T04:05:03;10.27;;;9.35;;
16973;SDS011;8603;46.944;7.412;2022-07-23T04:07:29;10.05;;;9.10;;
16973;SDS011;8603;46.944;7.412;2022-07-23T04:09:55;10.10;;;9.20;;
16973;SDS011;8603;46.944;7.412;2022-07-23T04:12:21;10.73;;;9.77;;
16973;SDS011;8603;46.944;7.412;2022-07-23T04:14:46;10.52;;;9.57;;
16973;SDS011;8603;46.944;7.412;2022-07-23T04:17:12;11.07;;;10.07;;
16973;SDS011;8603;46.944;7.412;2022-07-23T04:19:38;11.45;;;10.35;;
16973;SDS011;8603;46.944;7.412;2022-07-23T04:22:08;12.10;;;10.85;;
16973;SDS011;8603;46.944;7.412;2022-07-23T04:24:34;11.52;;;10.32;;
16973;SDS011;8603;46.944;7.412;2022-07-23T04:27:00;10.32;;;9.32;;
16973;SDS011;8603;46.944;7.412;2022-07-23T04:29:26;11.20;;;10.15;;
16973;SDS011;8603;46.944;7.412;2022-07-23T04:31:52;9.75;;;8.85;;
16973;SDS011;8603;46.944;7.412;2022-07-23T04:34:17;11.85;;;10.73;;
16973;SDS011;8603;46.944;7.412;2022-07-23T04:36:43;14.43;;;12.10;;
16973;SDS011;8603;46.944;7.412;2022-07-23T04:39:09;13.43;;;11.98;;
16973;SDS011;8603;46.944;7.412;2022-07-23T04:41:34;10.52;;;9.63;;
16973;SDS011;8603;46.944;7.412;2022-07-23T04:44:00;11.82;;;10.55;;
16973;SDS011;8603;46.944;7.412;2022-07-23T04:46:26;10.48;;;9.57;;
16973;SDS011;8603;46.944;7.412;2022-07-23T04:48:52;9.70;;;8.80;;
16973;SDS011;8603;46.944;7.412;2022-07-23T04:51:18;11.07;;;9.98;;
16973;SDS011;8603;46.944;7.412;2022-07-23T04:53:44;11.52;;;10.52;;
16973;SDS011;8603;46.944;7.412;2022-07-23T04:56:10;10.10;;;9.20;;
16973;SDS011;8603;46.944;7.412;2022-07-23T04:58:35;11.65;;;10.65;;
16973;SDS011;8603;46.944;7.412;2022-07-23T05:01:01;11.25;;;9.93;;
16973;SDS011;8603;46.944;7.412;2022-07-23T05:03:27;11.88;;;10.63;;
16973;SDS011;8603;46.944;7.412;2022-07-23T05:05:52;12.30;;;10.98;;
16973;SDS011;8603;46.944;7.412;2022-07-23T05:08:18;11.00;;;9.90;;
16973;SDS011;8603;46.944;7.412;2022-07-23T05:10:44;10.85;;;9.82;;
16973;SDS011;8603;46.944;7.412;2022-07-23T05:13:09;10.48;;;9.55;;
16973;SDS011;8603;46.944;7.412;2022-07-23T05:15:35;10.15;;;9.27;;
16973;SDS011;8603;46.944;7.412;2022-07-23T05:18:00;11.43;;;10.32;;
16973;SDS011;8603;46.944;7.412;2022-07-23T05:20:26;10.18;;;9.25;;
16973;SDS011;8603;46.944;7.412;2022-07-23T05:22:52;10.10;;;9.20;;
16973;SDS011;8603;46.944;7.412;2022-07-23T05:25:17;11.55;;;10.38;;
16973;SDS011;8603;46.944;7.412;2022-07-23T05:27:43;11.30;;;10.18;;
16973;SDS011;8603;46.944;7.412;2022-07-23T05:30:08;10.18;;;9.27;;
16973;SDS011;8603;46.944;7.412;2022-07-23T05:32:34;10.48;;;9.57;;
16973;SDS011;8603;46.944;7.412;2022-07-23T05:35:01;11.07;;;9.98;;
16973;SDS011;8603;46.944;7.412;2022-07-23T05:37:28;11.35;;;10.35;;
16973;SDS011;8603;46.944;7.412;2022-07-23T05:39:53;11.45;;;10.38;;
16973;SDS011;8603;46.944;7.412;2022-07-23T05:42:19;13.30;;;11.13;;
16973;SDS011;8603;46.944;7.412;2022-07-23T05:44:44;12.18;;;11.07;;
16973;SDS011;8603;46.944;7.412;2022-07-23T05:47:10;11.55;;;10.43;;
16973;SDS011;8603;46.944;7.412;2022-07-23T05:49:36;10.32;;;9.40;;
16973;SDS011;8603;46.944;7.412;2022-07-23T05:52:04;12.30;;;10.50;;
16973;SDS011;8603;46.944;7.412;2022-07-23T05:54:30;11.73;;;10.52;;
16973;SDS011;8603;46.944;7.412;2022-07-23T05:56:56;10.68;;;9.68;;
16973;SDS011;8603;46.944;7.412;2022-07-23T05:59:21;11.27;;;10.18;;
16973;SDS011;8603;46.944;7.412;2022-07-23T06:01:47;10.65;;;9.75;;
16973;SDS011;8603;46.944;7.412;2022-07-23T06:04:12;10.73;;;9.77;;
16973;SDS011;8603;46.944;7.412;2022-07-23T06:06:38;9.27;;;8.40;;
16973;SDS011;8603;46.944;7.412;2022-07-23T06:09:03;10.70;;;9.65;;
16973;SDS011;8603;46.944;7.412;2022-07-23T06:11:29;10.70;;;9.70;;
16973;SDS011;8603;46.944;7.412;2022-07-23T06:13:55;10.35;;;9.45;;
16973;SDS011;8603;46.944;7.412;2022-07-23T06:16:20;9.73;;;8.82;;
16973;SDS011;8603;46.944;7.412;2022-07-23T06:18:46;10.05;;;9.05;;
16973;SDS011;8603;46.944;7.412;2022-07-23T06:21:11;11.05;;;9.75;;
16973;SDS011;8603;46.944;7.412;2022-07-23T06:23:37;10.68;;;9.68;;
16973;SDS011;8603;46.944;7.412;2022-07-23T06:26:02;12.43;;;9.88;;
16973;SDS011;8603;46.944;7.412;2022-07-23T06:28:28;12.02;;;10.88;;
16973;SDS011;8603;46.944;7.412;2022-07-23T06:30:53;11.35;;;10.27;;
16973;SDS011;8603;46.944;7.412;2022-07-23T06:33:19;10.48;;;9.43;;
16973;SDS011;8603;46.944;7.412;2022-07-23T06:35:44;9.95;;;8.95;;
16973;SDS011;8603;46.944;7.412;2022-07-23T06:38:10;10.60;;;9.60;;
16973;SDS011;8603;46.944;7.412;2022-07-23T06:40:35;12.00;;;10.82;;
16973;SDS011;8603;46.944;7.412;2022-07-23T06:43:01;12.13;;;10.93;;
16973;SDS011;8603;46.944;7.412;2022-07-23T06:45:27;10.70;;;9.77;;
16973;SDS011;8603;46.944;7.412;2022-07-23T06:47:52;11.93;;;10.70;;
16973;SDS011;8603;46.944;7.412;2022-07-23T06:50:18;11.80;;;10.65;;
16973;SDS011;8603;46.944;7.412;2022-07-23T06:52:43;11.95;;;10.88;;
16973;SDS011;8603;46.944;7.412;2022-07-23T06:55:09;11.07;;;10.02;;
16973;SDS011;8603;46.944;7.412;2022-07-23T06:57:37;11.23;;;10.13;;
16973;SDS011;8603;46.944;7.412;2022-07-23T07:00:03;12.93;;;11.73;;
16973;SDS011;8603;46.944;7.412;2022-07-23T07:02:30;11.82;;;10.73;;
16973;SDS011;8603;46.944;7.412;2022-07-23T07:04:55;13.60;;;11.98;;
16973;SDS011;8603;46.944;7.412;2022-07-23T07:07:21;11.68;;;10.52;;
16973;SDS011;8603;46.944;7.412;2022-07-23T07:09:46;12.93;;;11.35;;
16973;SDS011;8603;46.944;7.412;2022-07-23T07:12:12;11.88;;;10.77;;
16973;SDS011;8603;46.944;7.412;2022-07-23T07:14:38;13.45;;;10.82;;
16973;SDS011;8603;46.944;7.412;2022-07-23T07:17:03;11.00;;;10.00;;
16973;SDS011;8603;46.944;7.412;2022-07-23T07:19:29;11.60;;;10.38;;
16973;SDS011;8603;46.944;7.412;2022-07-23T07:21:54;12.60;;;11.40;;
16973;SDS011;8603;46.944;7.412;2022-07-23T07:24:20;11.73;;;10.52;;
16973;SDS011;8603;46.944;7.412;2022-07-23T07:26:45;13.80;;;12.43;;
16973;SDS011;8603;46.944;7.412;2022-07-23T07:29:11;14.00;;;12.68;;
16973;SDS011;8603;46.944;7.412;2022-07-23T07:31:37;12.63;;;11.32;;
16973;SDS011;8603;46.944;7.412;2022-07-23T07:34:02;18.85;;;15.30;;
16973;SDS011;8603;46.944;7.412;2022-07-23T07:36:28;15.00;;;13.40;;
16973;SDS011;8603;46.944;7.412;2022-07-23T07:38:54;15.15;;;13.07;;
16973;SDS011;8603;46.944;7.412;2022-07-23T07:41:19;13.73;;;12.38;;
16973;SDS011;8603;46.944;7.412;2022-07-23T07:43:48;11.95;;;10.77;;
16973;SDS011;8603;46.944;7.412;2022-07-23T07:46:14;11.88;;;10.77;;
16973;SDS011;8603;46.944;7.412;2022-07-23T07:48:40;11.98;;;10.80;;
16973;SDS011;8603;46.944;7.412;2022-07-23T07:51:06;11.48;;;10.38;;
16973;SDS011;8603;46.944;7.412;2022-07-23T07:53:32;11.27;;;10.13;;
16973;SDS011;8603;46.944;7.412;2022-07-23T07:55:57;11.23;;;10.10;;
16973;SDS011;8603;46.944;7.412;2022-07-23T07:58:23;11.02;;;10.05;;
16973;SDS011;8603;46.944;7.412;2022-07-23T08:00:48;10.90;;;9.77;;
16973;SDS011;8603;46.944;7.412;2022-07-23T08:03:14;12.25;;;10.57;;
16973;SDS011;8603;46.944;7.412;2022-07-23T08:05:40;12.43;;;11.13;;
16973;SDS011;8603;46.944;7.412;2022-07-23T08:08:05;13.13;;;10.73;;
16973;SDS011;8603;46.944;7.412;2022-07-23T08:10:31;10.68;;;9.57;;
16973;SDS011;8603;46.944;7.412;2022-07-23T08:12:57;11.20;;;10.00;;
16973;SDS011;8603;46.944;7.412;2022-07-23T08:15:24;11.20;;;10.20;;
16973;SDS011;8603;46.944;7.412;2022-07-23T08:17:51;13.02;;;9.35;;
16973;SDS011;8603;46.944;7.412;2022-07-23T08:20:18;10.10;;;9.10;;
16973;SDS011;8603;46.944;7.412;2022-07-23T08:22:55;9.68;;;8.77;;
16973;SDS011;8603;46.944;7.412;2022-07-23T08:25:23;11.20;;;9.48;;
16973;SDS011;8603;46.944;7.412;2022-07-23T08:27:57;11.35;;;10.20;;
16973;SDS011;8603;46.944;7.412;2022-07-23T08:30:23;12.02;;;9.73;;
16973;SDS011;8603;46.944;7.412;2022-07-23T08:35:17;10.40;;;9.35;;
16973;SDS011;8603;46.944;7.412;2022-07-23T08:37:46;10.02;;;9.02;;
16973;SDS011;8603;46.944;7.412;2022-07-23T08:40:11;9.35;;;8.45;;
16973;SDS011;8603;46.944;7.412;2022-07-23T08:42:37;9.50;;;8.52;;
16973;SDS011;8603;46.944;7.412;2022-07-23T08:45:03;8.95;;;8.15;;
16973;SDS011;8603;46.944;7.412;2022-07-23T08:47:31;9.68;;;8.68;;
16973;SDS011;8603;46.944;7.412;2022-07-23T08:49:56;9.20;;;8.25;;
16973;SDS011;8603;46.944;7.412;2022-07-23T08:52:24;8.95;;;8.05;;
16973;SDS011;8603;46.944;7.412;2022-07-23T08:54:51;9.00;;;8.00;;
16973;SDS011;8603;46.944;7.412;2022-07-23T08:57:17;9.00;;;8.10;;
16973;SDS011;8603;46.944;7.412;2022-07-23T08:59:43;8.90;;;7.78;;
16973;SDS011;8603;46.944;7.412;2022-07-23T09:02:08;11.23;;;8.50;;
16973;SDS011;8603;46.944;7.412;2022-07-23T09:04:34;7.68;;;7.07;;
16973;SDS011;8603;46.944;7.412;2022-07-23T09:07:01;9.00;;;8.15;;
16973;SDS011;8603;46.944;7.412;2022-07-23T09:09:27;8.50;;;7.70;;
16973;SDS011;8603;46.944;7.412;2022-07-23T09:12:05;8.40;;;7.57;;
16973;SDS011;8603;46.944;7.412;2022-07-23T09:14:42;10.07;;;7.35;;
16973;SDS011;8603;46.944;7.412;2022-07-23T09:17:15;8.10;;;7.30;;
16973;SDS011;8603;46.944;7.412;2022-07-23T09:19:42;7.55;;;6.85;;
16973;SDS011;8603;46.944;7.412;2022-07-23T09:27:47;8.50;;;7.78;;
16973;SDS011;8603;46.944;7.412;2022-07-23T09:30:13;8.40;;;7.60;;
16973;SDS011;8603;46.944;7.412;2022-07-23T09:32:39;7.90;;;7.20;;
16973;SDS011;8603;46.944;7.412;2022-07-23T09:35:05;7.90;;;7.13;;
16973;SDS011;8603;46.944;7.412;2022-07-23T09:37:31;7.93;;;7.20;;
16973;SDS011;8603;46.944;7.412;2022-07-23T09:40:04;7.40;;;6.70;;
16973;SDS011;8603;46.944;7.412;2022-07-23T09:42:32;7.45;;;6.80;;
16973;SDS011;8603;46.944;7.412;2022-07-23T09:44:58;10.30;;;7.10;;
16973;SDS011;8603;46.944;7.412;2022-07-23T09:47:26;7.38;;;6.72;;
16973;SDS011;8603;46.944;7.412;2022-07-23T09:52:33;7.50;;;6.80;;
16973;SDS011;8603;46.944;7.412;2022-07-23T09:55:08;7.97;;;7.18;;
16973;SDS011;8603;46.944;7.412;2022-07-23T09:57:34;7.93;;;7.20;;
16973;SDS011;8603;46.944;7.412;2022-07-23T10:00:01;8.43;;;7.63;;
16973;SDS011;8603;46.944;7.412;2022-07-23T10:02:29;8.70;;;7.82;;
16973;SDS011;8603;46.944;7.412;2022-07-23T10:04:57;7.68;;;6.97;;
16973;SDS011;8603;46.944;7.412;2022-07-23T10:07:24;7.78;;;7.07;;
16973;SDS011;8603;46.944;7.412;2022-07-23T10:09:52;7.13;;;6.53;;
16973;SDS011;8603;46.944;7.412;2022-07-23T10:12:18;6.93;;;6.32;;
16973;SDS011;8603;46.944;7.412;2022-07-23T10:14:50;8.85;;;7.10;;
16973;SDS011;8603;46.944;7.412;2022-07-23T10:17:17;7.25;;;6.55;;
16973;SDS011;8603;46.944;7.412;2022-07-23T10:19:43;8.90;;;8.00;;
16973;SDS011;8603;46.944;7.412;2022-07-23T10:22:11;7.40;;;6.70;;
16973;SDS011;8603;46.944;7.412;2022-07-23T10:24:46;7.95;;;7.15;;
16973;SDS011;8603;46.944;7.412;2022-07-23T10:30:24;9.90;;;7.80;;
16973;SDS011;8603;46.944;7.412;2022-07-23T10:33:05;8.45;;;7.55;;
16973;SDS011;8603;46.944;7.412;2022-07-23T10:36:56;7.65;;;7.00;;
16973;SDS011;8603;46.944;7.412;2022-07-23T10:39:38;8.00;;;7.20;;
16973;SDS011;8603;46.944;7.412;2022-07-23T10:41:42;7.88;;;7.07;;
16973;SDS011;8603;46.944;7.412;2022-07-23T10:44:12;9.10;;;6.80;;
16973;SDS011;8603;46.944;7.412;2022-07-23T10:46:53;7.50;;;6.75;;
16973;SDS011;8603;46.944;7.412;2022-07-23T10:49:48;7.18;;;6.57;;
16973;SDS011;8603;46.944;7.412;2022-07-23T10:57:18;8.23;;;7.45;;
16973;SDS011;8603;46.944;7.412;2022-07-23T11:02:31;7.38;;;6.68;;
16973;SDS011;8603;46.944;7.412;2022-07-23T11:05:03;8.57;;;7.65;;
16973;SDS011;8603;46.944;7.412;2022-07-23T11:07:33;7.38;;;6.68;;
16973;SDS011;8603;46.944;7.412;2022-07-23T11:10:00;7.90;;;7.20;;
16973;SDS011;8603;46.944;7.412;2022-07-23T11:14:57;7.88;;;6.90;;
16973;SDS011;8603;46.944;7.412;2022-07-23T11:17:23;8.75;;;7.85;;
16973;SDS011;8603;46.944;7.412;2022-07-23T11:25:10;8.88;;;7.43;;
16973;SDS011;8603;46.944;7.412;2022-07-23T11:27:45;7.75;;;7.05;;
16973;SDS011;8603;46.944;7.412;2022-07-23T11:35:37;6.47;;;5.97;;
16973;SDS011;8603;46.944;7.412;2022-07-23T11:38:13;6.95;;;6.35;;
16973;SDS011;8603;46.944;7.412;2022-07-23T11:40:39;7.72;;;6.55;;
16973;SDS011;8603;46.944;7.412;2022-07-23T11:43:05;6.70;;;6.03;;
16973;SDS011;8603;46.944;7.412;2022-07-23T11:45:37;6.43;;;5.93;;
16973;SDS011;8603;46.944;7.412;2022-07-23T11:48:26;6.35;;;5.85;;
16973;SDS011;8603;46.944;7.412;2022-07-23T11:50:54;6.22;;;5.72;;
16973;SDS011;8603;46.944;7.412;2022-07-23T11:53:28;7.20;;;6.53;;
16973;SDS011;8603;46.944;7.412;2022-07-23T11:56:08;7.28;;;6.68;;
16973;SDS011;8603;46.944;7.412;2022-07-23T11:58:35;7.15;;;6.47;;
16973;SDS011;8603;46.944;7.412;2022-07-23T12:01:01;7.13;;;6.50;;
16973;SDS011;8603;46.944;7.412;2022-07-23T12:03:27;6.90;;;6.28;;
16973;SDS011;8603;46.944;7.412;2022-07-23T12:05:56;7.30;;;6.60;;
16973;SDS011;8603;46.944;7.412;2022-07-23T12:08:22;6.70;;;6.20;;
16973;SDS011;8603;46.944;7.412;2022-07-23T12:10:48;6.82;;;6.13;;
16973;SDS011;8603;46.944;7.412;2022-07-23T12:13:15;6.57;;;5.97;;
16973;SDS011;8603;46.944;7.412;2022-07-23T12:15:46;7.28;;;6.68;;
16973;SDS011;8603;46.944;7.412;2022-07-23T12:18:14;6.88;;;6.28;;
16973;SDS011;8603;46.944;7.412;2022-07-23T12:20:49;7.30;;;6.60;;
16973;SDS011;8603;46.944;7.412;2022-07-23T12:23:17;6.80;;;5.85;;
16973;SDS011;8603;46.944;7.412;2022-07-23T12:25:44;6.20;;;5.70;;
16973;SDS011;8603;46.944;7.412;2022-07-23T12:28:12;6.45;;;5.93;;
16973;SDS011;8603;46.944;7.412;2022-07-23T12:30:41;6.60;;;6.00;;
16973;SDS011;8603;46.944;7.412;2022-07-23T12:33:10;7.22;;;6.57;;
16973;SDS011;8603;46.944;7.412;2022-07-23T12:35:39;9.60;;;7.10;;
16973;SDS011;8603;46.944;7.412;2022-07-23T12:38:17;6.90;;;6.25;;
16973;SDS011;8603;46.944;7.412;2022-07-23T12:40:48;7.72;;;6.80;;
16973;SDS011;8603;46.944;7.412;2022-07-23T12:48:27;7.38;;;6.38;;
16973;SDS011;8603;46.944;7.412;2022-07-23T12:51:21;7.47;;;6.85;;
16973;SDS011;8603;46.944;7.412;2022-07-23T12:53:53;7.47;;;6.78;;
16973;SDS011;8603;46.944;7.412;2022-07-23T12:56:26;7.55;;;6.93;;
16973;SDS011;8603;46.944;7.412;2022-07-23T12:58:54;7.07;;;6.47;;
16973;SDS011;8603;46.944;7.412;2022-07-23T13:03:55;7.45;;;6.85;;
16973;SDS011;8603;46.944;7.412;2022-07-23T13:06:24;7.63;;;6.93;;
16973;SDS011;8603;46.944;7.412;2022-07-23T13:08:50;7.90;;;7.10;;
16973;SDS011;8603;46.944;7.412;2022-07-23T13:11:17;7.70;;;7.00;;
16973;SDS011;8603;46.944;7.412;2022-07-23T13:13:42;7.43;;;6.75;;
16973;SDS011;8603;46.944;7.412;2022-07-23T13:16:08;7.35;;;6.75;;
16973;SDS011;8603;46.944;7.412;2022-07-23T13:18:33;7.25;;;6.65;;
16973;SDS011;8603;46.944;7.412;2022-07-23T13:20:59;7.03;;;6.38;;
16973;SDS011;8603;46.944;7.412;2022-07-23T13:23:25;7.65;;;7.00;;
16973;SDS011;8603;46.944;7.412;2022-07-23T13:25:51;7.20;;;6.60;;
16973;SDS011;8603;46.944;7.412;2022-07-23T13:28:17;7.10;;;6.50;;
16973;SDS011;8603;46.944;7.412;2022-07-23T13:30:44;6.70;;;6.20;;
16973;SDS011;8603;46.944;7.412;2022-07-23T13:33:13;7.20;;;6.55;;
16973;SDS011;8603;46.944;7.412;2022-07-23T13:35:38;7.20;;;6.57;;
16973;SDS011;8603;46.944;7.412;2022-07-23T13:38:04;9.13;;;7.18;;
16973;SDS011;8603;46.944;7.412;2022-07-23T13:40:32;7.80;;;7.10;;
16973;SDS011;8603;46.944;7.412;2022-07-23T13:42:59;7.50;;;6.75;;
16973;SDS011;8603;46.944;7.412;2022-07-23T13:45:27;7.57;;;6.80;;
16973;SDS011;8603;46.944;7.412;2022-07-23T13:47:53;7.45;;;6.85;;
16973;SDS011;8603;46.944;7.412;2022-07-23T13:50:19;7.80;;;7.05;;
16973;SDS011;8603;46.944;7.412;2022-07-23T13:52:44;7.38;;;6.78;;
16973;SDS011;8603;46.944;7.412;2022-07-23T13:55:10;7.68;;;6.32;;
16973;SDS011;8603;46.944;7.412;2022-07-23T13:57:35;7.13;;;6.47;;
16973;SDS011;8603;46.944;7.412;2022-07-23T14:00:02;7.25;;;6.55;;
16973;SDS011;8603;46.944;7.412;2022-07-23T14:02:29;7.43;;;6.72;;
16973;SDS011;8603;46.944;7.412;2022-07-23T14:04:55;7.32;;;6.72;;
16973;SDS011;8603;46.944;7.412;2022-07-23T14:07:21;6.88;;;6.28;;
16973;SDS011;8603;46.944;7.412;2022-07-23T14:09:47;7.40;;;6.72;;
16973;SDS011;8603;46.944;7.412;2022-07-23T14:12:13;7.32;;;6.63;;
16973;SDS011;8603;46.944;7.412;2022-07-23T14:14:38;7.28;;;6.68;;
16973;SDS011;8603;46.944;7.412;2022-07-23T14:17:04;6.80;;;6.20;;
16973;SDS011;8603;46.944;7.412;2022-07-23T14:19:30;7.15;;;6.50;;
16973;SDS011;8603;46.944;7.412;2022-07-23T14:21:55;7.22;;;6.53;;
16973;SDS011;8603;46.944;7.412;2022-07-23T14:24:21;8.73;;;7.30;;
16973;SDS011;8603;46.944;7.412;2022-07-23T14:26:46;7.10;;;6.40;;
16973;SDS011;8603;46.944;7.412;2022-07-23T14:29:12;7.35;;;6.65;;
16973;SDS011;8603;46.944;7.412;2022-07-23T14:31:38;7.50;;;6.80;;
16973;SDS011;8603;46.944;7.412;2022-07-23T14:34:04;6.95;;;6.43;;
16973;SDS011;8603;46.944;7.412;2022-07-23T14:39:04;6.90;;;6.38;;
16973;SDS011;8603;46.944;7.412;2022-07-23T14:41:33;7.38;;;6.88;;
16973;SDS011;8603;46.944;7.412;2022-07-23T14:43:59;7.45;;;6.85;;
16973;SDS011;8603;46.944;7.412;2022-07-23T14:51:28;7.50;;;6.80;;
16973;SDS011;8603;46.944;7.412;2022-07-23T14:53:54;7.28;;;6.68;;
16973;SDS011;8603;46.944;7.412;2022-07-23T14:56:19;7.75;;;7.10;;
16973;SDS011;8603;46.944;7.412;2022-07-23T14:58:45;7.35;;;6.70;;
16973;SDS011;8603;46.944;7.412;2022-07-23T15:01:11;7.55;;;6.88;;
16973;SDS011;8603;46.944;7.412;2022-07-23T15:03:37;8.25;;;7.18;;
16973;SDS011;8603;46.944;7.412;2022-07-23T15:06:03;7.82;;;7.00;;
16973;SDS011;8603;46.944;7.412;2022-07-23T15:08:28;7.63;;;7.03;;
16973;SDS011;8603;46.944;7.412;2022-07-23T15:10:54;8.23;;;7.43;;
16973;SDS011;8603;46.944;7.412;2022-07-23T15:13:20;8.27;;;7.57;;
16973;SDS011;8603;46.944;7.412;2022-07-23T15:15:45;8.68;;;7.88;;
16973;SDS011;8603;46.944;7.412;2022-07-23T15:18:11;8.60;;;7.80;;
16973;SDS011;8603;46.944;7.412;2022-07-23T15:20:37;8.20;;;7.50;;
16973;SDS011;8603;46.944;7.412;2022-07-23T15:23:08;8.02;;;7.32;;
16973;SDS011;8603;46.944;7.412;2022-07-23T15:25:37;8.95;;;8.15;;
16973;SDS011;8603;46.944;7.412;2022-07-23T15:28:04;8.98;;;8.18;;
16973;SDS011;8603;46.944;7.412;2022-07-23T15:30:30;8.15;;;7.45;;
16973;SDS011;8603;46.944;7.412;2022-07-23T15:32:56;8.35;;;7.65;;
16973;SDS011;8603;46.944;7.412;2022-07-23T15:35:22;8.82;;;7.97;;
16973;SDS011;8603;46.944;7.412;2022-07-23T15:37:50;10.90;;;9.90;;
16973;SDS011;8603;46.944;7.412;2022-07-23T15:40:16;8.82;;;8.13;;
16973;SDS011;8603;46.944;7.412;2022-07-23T15:42:42;8.10;;;7.45;;